createdAt,value
2023-04-16T00:00:30.732Z,2.47
2023-04-16T00:02:58.169Z,2.25
2023-04-16T00:05:25.591Z,2.00
2023-04-16T00:07:52.877Z,2.25
2023-04-16T00:10:20.190Z,1.92
2023-04-16T00:12:47.534Z,2.20
2023-04-16T00:15:14.905Z,1.45
2023-04-16T00:17:42.232Z,1.83
2023-04-16T00:20:09.819Z,1.90
2023-04-16T00:22:37.121Z,1.85
2023-04-16T00:25:04.488Z,1.80
2023-04-16T00:27:31.784Z,1.63
2023-04-16T00:29:59.011Z,1.55
2023-04-16T00:32:26.443Z,2.08
2023-04-16T00:34:53.757Z,2.08
2023-04-16T00:37:21.127Z,1.93
2023-04-16T00:39:48.451Z,1.83
2023-04-16T00:42:16.256Z,1.60
2023-04-16T00:44:43.476Z,1.90
2023-04-16T00:47:11.034Z,1.58
2023-04-16T00:49:38.362Z,1.70
2023-04-16T00:52:05.944Z,1.60
2023-04-16T00:54:33.185Z,1.92
2023-04-16T00:57:01.648Z,1.77
2023-04-16T00:59:29.694Z,2.15
2023-04-16T01:01:56.978Z,1.90
2023-04-16T01:04:24.523Z,2.20
2023-04-16T01:06:51.882Z,2.08
2023-04-16T01:09:19.312Z,1.80
2023-04-16T01:11:46.609Z,2.55
2023-04-16T01:14:13.915Z,3.33
2023-04-16T01:16:41.402Z,2.63
2023-04-16T01:19:09.054Z,2.42
2023-04-16T01:21:36.566Z,2.70
2023-04-16T01:24:04.713Z,2.70
2023-04-16T01:26:32.150Z,2.10
2023-04-16T01:29:00.433Z,2.17
2023-04-16T01:31:27.845Z,2.65
2023-04-16T01:34:08.091Z,2.97
2023-04-16T01:36:35.766Z,3.30
2023-04-16T01:39:03.325Z,2.70
2023-04-16T01:41:32.136Z,3.50
2023-04-16T01:43:59.408Z,3.40
2023-04-16T01:46:31.644Z,3.60
2023-04-16T01:48:59.216Z,3.28
2023-04-16T01:51:27.412Z,3.17
2023-04-16T01:53:55.267Z,4.30
2023-04-16T01:56:22.605Z,3.45
2023-04-16T01:58:49.995Z,3.30
2023-04-16T02:01:18.999Z,3.40
2023-04-16T02:03:47.630Z,3.50
2023-04-16T02:06:15.652Z,2.65
2023-04-16T02:08:43.288Z,3.10
2023-04-16T02:11:10.820Z,2.67
2023-04-16T02:13:38.323Z,3.10
2023-04-16T02:16:05.806Z,3.33
2023-04-16T02:19:02.399Z,2.72
2023-04-16T02:21:32.602Z,2.85
2023-04-16T02:24:00.124Z,3.70
2023-04-16T02:26:30.616Z,2.83
2023-04-16T02:29:03.812Z,2.77
2023-04-16T02:31:38.534Z,3.30
2023-04-16T02:34:06.888Z,3.25
2023-04-16T02:36:34.203Z,3.42
2023-04-16T02:39:02.022Z,3.70
2023-04-16T02:41:29.248Z,3.13
2023-04-16T02:43:56.793Z,2.83
2023-04-16T02:46:24.239Z,3.50
2023-04-16T02:48:51.826Z,3.63
2023-04-16T02:51:19.234Z,2.83
2023-04-16T02:53:46.669Z,3.40
2023-04-16T02:56:14.621Z,3.42
2023-04-16T02:58:41.951Z,2.88
2023-04-16T03:01:09.331Z,4.18
2023-04-16T03:03:36.810Z,3.47
2023-04-16T03:06:04.139Z,3.43
2023-04-16T03:08:31.411Z,3.33
2023-04-16T03:10:58.737Z,2.95
2023-04-16T03:13:26.058Z,3.78
2023-04-16T03:15:53.345Z,3.30
2023-04-16T03:18:20.654Z,3.97
2023-04-16T03:20:53.748Z,3.45
2023-04-16T03:23:21.164Z,3.70
2023-04-16T03:25:48.470Z,3.60
2023-04-16T03:28:18.652Z,4.43
2023-04-16T03:30:52.946Z,3.97
2023-04-16T03:33:21.062Z,4.40
2023-04-16T03:35:48.412Z,3.60
2023-04-16T03:38:15.748Z,3.70
2023-04-16T03:40:43.086Z,4.40
2023-04-16T03:43:10.552Z,4.37
2023-04-16T03:45:44.215Z,3.75
2023-04-16T03:48:12.124Z,4.03
2023-04-16T03:50:39.480Z,4.93
2023-04-16T03:53:09.209Z,4.70
2023-04-16T03:55:36.696Z,4.60
2023-04-16T03:58:04.950Z,4.47
2023-04-16T04:00:33.246Z,5.15
2023-04-16T04:03:07.248Z,5.45
2023-04-16T04:05:41.512Z,5.32
2023-04-16T04:08:11.632Z,5.00
2023-04-16T04:10:39.319Z,4.28
2023-04-16T04:13:07.821Z,4.28
2023-04-16T04:15:36.000Z,5.40
2023-04-16T04:18:03.295Z,5.80
2023-04-16T04:20:30.739Z,4.87
2023-04-16T04:22:58.728Z,4.93
2023-04-16T04:25:26.922Z,5.97
2023-04-16T04:27:54.270Z,5.18
2023-04-16T04:30:21.607Z,5.72
2023-04-16T04:32:48.935Z,5.80
2023-04-16T04:35:17.178Z,5.93
2023-04-16T04:37:44.572Z,5.55
2023-04-16T04:40:15.718Z,5.65
2023-04-16T04:42:43.096Z,5.95
2023-04-16T04:45:11.524Z,6.30
2023-04-16T04:47:38.865Z,6.53
2023-04-16T04:50:06.556Z,5.80
2023-04-16T04:52:34.214Z,6.57
2023-04-16T04:55:02.756Z,7.53
2023-04-16T04:57:31.229Z,6.80
2023-04-16T04:59:58.904Z,7.20
2023-04-16T05:02:28.138Z,7.20
2023-04-16T05:04:55.750Z,7.40
2023-04-16T05:07:23.378Z,8.02
2023-04-16T05:09:50.797Z,9.27
2023-04-16T05:12:18.047Z,9.35
2023-04-16T05:14:45.411Z,8.57
2023-04-16T05:17:12.615Z,9.40
2023-04-16T05:19:39.936Z,9.73
2023-04-16T05:22:07.179Z,9.47
2023-04-16T05:24:34.514Z,9.40
2023-04-16T05:27:01.828Z,9.63
2023-04-16T05:29:29.089Z,10.10
2023-04-16T05:31:56.391Z,9.50
2023-04-16T05:34:23.657Z,9.23
2023-04-16T05:36:51.025Z,8.10
2023-04-16T05:39:18.768Z,9.00
2023-04-16T05:41:46.005Z,9.70
2023-04-16T05:44:13.265Z,9.25
2023-04-16T05:46:40.601Z,8.50
2023-04-16T05:49:08.166Z,8.15
2023-04-16T05:51:36.273Z,8.30
2023-04-16T05:54:03.555Z,9.27
2023-04-16T05:56:30.794Z,9.25
2023-04-16T05:58:58.084Z,8.30
2023-04-16T06:01:26.101Z,8.85
2023-04-16T06:03:53.533Z,8.82
2023-04-16T06:06:20.840Z,8.60
2023-04-16T06:08:48.130Z,8.60
2023-04-16T06:11:15.422Z,9.40
2023-04-16T06:13:43.077Z,7.97
2023-04-16T06:16:10.460Z,9.20
2023-04-16T06:18:37.720Z,9.20
2023-04-16T06:21:05.366Z,8.15
2023-04-16T06:23:32.638Z,8.10
2023-04-16T06:25:59.869Z,9.23
2023-04-16T06:28:27.206Z,8.65
2023-04-16T06:30:54.488Z,7.10
2023-04-16T06:33:21.843Z,7.68
2023-04-16T06:35:49.105Z,7.70
2023-04-16T06:38:16.364Z,6.70
2023-04-16T06:40:43.625Z,7.63
2023-04-16T06:43:10.888Z,7.45
2023-04-16T06:45:38.220Z,8.23
2023-04-16T06:48:06.028Z,7.63
2023-04-16T06:50:33.706Z,8.07
2023-04-16T06:53:01.106Z,6.43
2023-04-16T06:55:28.319Z,6.40
2023-04-16T06:57:55.562Z,7.50
2023-04-16T07:00:22.784Z,7.30
2023-04-16T07:02:50.115Z,7.63
2023-04-16T07:05:17.537Z,7.72
2023-04-16T07:07:44.786Z,7.32
2023-04-16T07:10:12.249Z,7.25
2023-04-16T07:12:39.590Z,7.60
2023-04-16T07:15:07.306Z,7.32
2023-04-16T07:17:34.570Z,6.80
2023-04-16T07:20:01.823Z,8.25
2023-04-16T07:22:29.090Z,7.78
2023-04-16T07:24:56.542Z,7.50
2023-04-16T07:27:23.956Z,7.57
2023-04-16T07:29:51.361Z,9.93
2023-04-16T07:32:18.910Z,7.50
2023-04-16T07:34:46.362Z,7.82
2023-04-16T07:37:13.575Z,7.83
2023-04-16T07:39:40.980Z,7.15
2023-04-16T07:42:08.318Z,6.60
2023-04-16T07:44:35.817Z,6.65
2023-04-16T07:47:05.261Z,6.68
2023-04-16T07:49:32.908Z,6.87
2023-04-16T07:52:00.402Z,6.97
2023-04-16T07:54:28.999Z,6.22
2023-04-16T07:56:56.588Z,5.82
2023-04-16T07:59:24.567Z,6.13
2023-04-16T08:01:53.969Z,5.80
2023-04-16T08:04:25.655Z,6.00
2023-04-16T08:06:53.185Z,7.78
2023-04-16T08:09:21.747Z,6.88
2023-04-16T08:11:50.042Z,6.63
2023-04-16T08:14:17.910Z,6.90
2023-04-16T08:16:45.496Z,6.50
2023-04-16T08:19:13.056Z,5.88
2023-04-16T08:21:40.694Z,6.18
2023-04-16T08:24:08.011Z,5.45
2023-04-16T08:26:35.440Z,6.57
2023-04-16T08:29:02.711Z,6.18
2023-04-16T08:31:30.458Z,6.15
2023-04-16T08:33:57.939Z,6.35
2023-04-16T08:36:25.610Z,7.15
2023-04-16T08:38:52.890Z,6.53
2023-04-16T08:41:22.878Z,6.63
2023-04-16T08:43:51.943Z,5.70
2023-04-16T08:46:21.907Z,6.00
2023-04-16T08:48:50.174Z,6.50
2023-04-16T08:51:18.060Z,7.20
2023-04-16T08:53:59.151Z,5.93
2023-04-16T08:56:26.582Z,6.15
2023-04-16T08:58:55.148Z,6.30
2023-04-16T09:01:22.983Z,5.88
2023-04-16T09:03:50.700Z,6.40
2023-04-16T09:06:18.404Z,5.88
2023-04-16T09:08:49.261Z,6.63
2023-04-16T09:11:18.787Z,5.80
2023-04-16T09:13:46.901Z,6.15
2023-04-16T09:16:14.966Z,5.93
2023-04-16T09:18:42.390Z,5.88
2023-04-16T09:21:13.404Z,6.35
2023-04-16T09:23:41.173Z,5.55
2023-04-16T09:26:08.506Z,6.65
2023-04-16T09:28:42.821Z,5.60
2023-04-16T09:31:13.371Z,5.95
2023-04-16T09:33:41.113Z,5.22
2023-04-16T09:36:08.465Z,5.22
2023-04-16T09:38:47.589Z,5.32
2023-04-16T09:41:18.239Z,4.97
2023-04-16T09:43:57.677Z,4.47
2023-04-16T09:46:31.780Z,5.13
2023-04-16T09:48:59.240Z,4.68
2023-04-16T09:51:26.875Z,4.72
2023-04-16T09:53:54.914Z,5.63
2023-04-16T09:56:26.130Z,5.38
2023-04-16T09:58:58.161Z,4.63
2023-04-16T10:01:25.682Z,5.00
2023-04-16T10:03:55.306Z,5.15
2023-04-16T10:06:23.650Z,5.70
2023-04-16T10:08:51.753Z,5.35
2023-04-16T10:11:20.526Z,5.63
2023-04-16T10:13:47.864Z,4.72
2023-04-16T10:16:15.385Z,5.28
2023-04-16T10:18:43.953Z,4.77
2023-04-16T10:21:15.444Z,4.78
2023-04-16T10:23:43.853Z,4.78
2023-04-16T10:26:11.569Z,4.95
2023-04-16T10:28:38.894Z,4.82
2023-04-16T10:31:08.137Z,4.77
2023-04-16T10:33:36.814Z,4.72
2023-04-16T10:36:24.338Z,5.10
2023-04-16T10:38:54.999Z,6.30
2023-04-16T10:41:22.425Z,6.05
2023-04-16T10:43:52.644Z,5.83
2023-04-16T10:46:28.869Z,6.00
2023-04-16T10:48:57.072Z,6.45
2023-04-16T10:51:34.610Z,6.28
2023-04-16T10:54:05.373Z,5.22
2023-04-16T10:56:33.726Z,5.80
2023-04-16T10:59:01.246Z,6.72
2023-04-16T11:01:32.788Z,7.45
2023-04-16T11:04:02.101Z,6.50
2023-04-16T11:06:29.878Z,6.95
2023-04-16T11:08:57.131Z,6.10
2023-04-16T11:11:24.507Z,7.32
2023-04-16T11:13:55.722Z,6.80
2023-04-16T11:16:23.056Z,7.57
2023-04-16T11:18:51.569Z,7.50
2023-04-16T11:21:19.442Z,7.93
2023-04-16T11:23:50.694Z,7.60
2023-04-16T11:26:24.891Z,7.88
2023-04-16T11:28:52.511Z,8.07
2023-04-16T11:31:19.843Z,8.05
2023-04-16T11:33:47.176Z,8.00
2023-04-16T11:36:14.531Z,8.13
2023-04-16T11:38:42.989Z,7.97
2023-04-16T11:41:11.056Z,7.13
2023-04-16T11:43:38.408Z,8.10
2023-04-16T11:46:16.732Z,8.50
2023-04-16T11:48:52.938Z,7.72
2023-04-16T11:51:21.939Z,7.45
2023-04-16T11:53:50.091Z,7.55
2023-04-16T11:56:25.635Z,7.97
2023-04-16T11:59:12.958Z,7.63
2023-04-16T12:01:41.504Z,8.80
2023-04-16T12:04:09.638Z,7.30
2023-04-16T12:06:37.296Z,8.48
2023-04-16T12:09:24.209Z,8.80
2023-04-16T12:11:51.530Z,8.37
2023-04-16T12:14:18.834Z,8.52
2023-04-16T12:16:46.181Z,8.52
2023-04-16T12:19:13.605Z,8.43
2023-04-16T12:21:45.438Z,8.25
2023-04-16T12:24:14.255Z,8.37
2023-04-16T12:26:42.751Z,8.70
2023-04-16T12:29:20.948Z,7.72
2023-04-16T12:31:49.135Z,8.73
2023-04-16T12:34:17.307Z,8.50
2023-04-16T12:36:45.891Z,9.37
2023-04-16T12:39:13.776Z,9.20
2023-04-16T12:41:41.885Z,9.13
2023-04-16T12:44:12.036Z,8.20
2023-04-16T12:46:40.119Z,8.65
2023-04-16T12:49:07.763Z,7.97
2023-04-16T12:51:35.543Z,9.20
2023-04-16T12:54:03.495Z,8.27
2023-04-16T12:56:31.267Z,8.27
2023-04-16T12:58:59.134Z,7.72
2023-04-16T13:01:27.057Z,8.63
2023-04-16T13:03:55.150Z,8.27
2023-04-16T13:06:23.004Z,7.85
2023-04-16T13:08:50.771Z,7.82
2023-04-16T13:11:19.206Z,7.93
2023-04-16T13:13:46.978Z,8.07
2023-04-16T13:16:14.701Z,8.68
2023-04-16T13:18:42.141Z,8.70
2023-04-16T13:21:09.408Z,9.55
2023-04-16T13:23:36.710Z,8.65
2023-04-16T13:26:04.051Z,8.23
2023-04-16T13:28:31.430Z,8.68
2023-04-16T13:30:58.813Z,8.73
2023-04-16T13:33:26.687Z,8.43
2023-04-16T13:35:53.947Z,7.30
2023-04-16T13:38:21.292Z,8.73
2023-04-16T13:40:48.643Z,9.82
2023-04-16T13:43:18.857Z,8.23
2023-04-16T13:45:46.235Z,8.60
2023-04-16T13:48:13.526Z,8.52
2023-04-16T13:50:40.888Z,9.17
2023-04-16T13:53:08.369Z,7.90
2023-04-16T13:55:36.064Z,8.73
2023-04-16T13:58:03.591Z,7.93
2023-04-16T14:00:30.960Z,8.88
2023-04-16T14:02:58.619Z,8.23
2023-04-16T14:05:27.273Z,8.88
2023-04-16T14:07:54.627Z,8.55
2023-04-16T14:10:22.016Z,8.18
2023-04-16T14:12:49.281Z,8.18
2023-04-16T14:15:16.827Z,8.47
2023-04-16T14:17:44.440Z,9.27
2023-04-16T14:20:12.903Z,8.77
2023-04-16T14:22:42.333Z,9.23
2023-04-16T14:25:09.665Z,9.18
2023-04-16T14:27:37.025Z,8.87
2023-04-16T14:30:05.044Z,9.70
2023-04-16T14:32:32.437Z,8.60
2023-04-16T14:34:59.793Z,8.38
2023-04-16T14:37:27.225Z,8.77
2023-04-16T14:39:54.708Z,9.90
2023-04-16T14:42:22.462Z,9.15
2023-04-16T14:44:49.798Z,9.00
2023-04-16T14:47:17.338Z,9.38
2023-04-16T14:49:44.655Z,11.82
2023-04-16T14:52:12.480Z,8.53
2023-04-16T14:54:39.785Z,10.10
2023-04-16T14:57:07.141Z,17.55
2023-04-16T14:59:34.468Z,10.48
2023-04-16T15:02:01.841Z,9.95
2023-04-16T15:04:30.822Z,10.13
2023-04-16T15:06:59.230Z,9.77
2023-04-16T15:09:29.371Z,8.55
2023-04-16T15:11:57.226Z,9.27
2023-04-16T15:14:24.547Z,9.07
2023-04-16T15:16:51.921Z,9.73
2023-04-16T15:19:19.397Z,8.77
2023-04-16T15:21:48.642Z,10.80
2023-04-16T15:24:16.217Z,9.77
2023-04-16T15:26:43.727Z,9.80
2023-04-16T15:29:11.842Z,9.30
2023-04-16T15:31:39.112Z,8.98
2023-04-16T15:34:06.404Z,9.80
2023-04-16T15:36:33.753Z,9.57
2023-04-16T15:39:01.045Z,10.23
2023-04-16T15:41:31.882Z,10.17
2023-04-16T15:43:59.228Z,10.10
2023-04-16T15:46:26.576Z,10.20
2023-04-16T15:48:53.866Z,9.63
2023-04-16T15:51:21.178Z,9.95
2023-04-16T15:53:49.946Z,9.97
2023-04-16T15:56:17.357Z,9.15
2023-04-16T15:58:44.626Z,9.20
2023-04-16T16:01:11.910Z,10.70
2023-04-16T16:03:39.268Z,9.90
2023-04-16T16:06:08.469Z,8.80
2023-04-16T16:08:37.797Z,9.32
2023-04-16T16:11:05.337Z,9.35
2023-04-16T16:13:32.644Z,10.23
2023-04-16T16:15:59.965Z,9.50
2023-04-16T16:18:27.345Z,9.80
2023-04-16T16:20:57.341Z,9.57
2023-04-16T16:23:24.674Z,10.07
2023-04-16T16:25:52.630Z,10.57
2023-04-16T16:28:20.630Z,10.48
2023-04-16T16:30:48.081Z,11.40
2023-04-16T16:33:15.459Z,9.82
2023-04-16T16:35:42.759Z,10.43
2023-04-16T16:38:10.044Z,9.07
2023-04-16T16:40:37.666Z,10.10
2023-04-16T16:43:05.012Z,11.07
2023-04-16T16:45:32.363Z,10.98
2023-04-16T16:47:59.769Z,10.27
2023-04-16T16:50:27.022Z,9.98
2023-04-16T16:52:54.288Z,10.98
2023-04-16T16:55:21.638Z,9.53
2023-04-16T16:57:49.344Z,10.52
2023-04-16T17:00:19.857Z,10.98
2023-04-16T17:02:47.462Z,11.35
2023-04-16T17:05:14.907Z,12.13
2023-04-16T17:07:42.181Z,12.40
2023-04-16T17:10:20.369Z,10.73
2023-04-16T17:12:48.319Z,11.68
2023-04-16T17:15:15.830Z,11.90
2023-04-16T17:17:43.338Z,10.63
2023-04-16T17:20:12.513Z,11.40
2023-04-16T17:22:40.728Z,12.02
2023-04-16T17:25:08.318Z,11.40
2023-04-16T17:27:35.846Z,12.20
2023-04-16T17:30:05.309Z,12.00
2023-04-16T17:32:33.260Z,13.23
2023-04-16T17:35:01.941Z,12.23
2023-04-16T17:37:29.241Z,16.98
2023-04-16T17:39:56.556Z,22.17
2023-04-16T17:42:24.611Z,13.82
2023-04-16T17:44:52.426Z,14.47
2023-04-16T17:47:19.937Z,14.73
2023-04-16T17:49:47.264Z,12.75
2023-04-16T17:52:14.585Z,13.27
2023-04-16T17:54:42.578Z,12.13
2023-04-16T17:57:09.882Z,11.77
2023-04-16T17:59:37.212Z,12.85
2023-04-16T18:02:04.537Z,14.52
2023-04-16T18:04:32.017Z,14.48
2023-04-16T18:06:59.506Z,15.43
2023-04-16T18:09:27.302Z,12.60
2023-04-16T18:11:54.595Z,13.57
2023-04-16T18:14:22.006Z,13.60
2023-04-16T18:16:49.783Z,12.57
2023-04-16T18:19:17.131Z,13.23
2023-04-16T18:21:44.977Z,15.33
2023-04-16T18:24:12.563Z,16.70
2023-04-16T18:26:40.900Z,16.63
2023-04-16T18:29:09.167Z,16.63
2023-04-16T18:31:36.667Z,15.68
2023-04-16T18:34:04.041Z,13.20
2023-04-16T18:36:31.544Z,14.23
2023-04-16T18:39:01.592Z,13.52
2023-04-16T18:41:29.944Z,12.00
2023-04-16T18:43:57.505Z,12.55
2023-04-16T18:46:25.466Z,17.33
2023-04-16T18:48:52.851Z,14.15
2023-04-16T18:51:20.122Z,12.68
2023-04-16T18:53:47.414Z,14.35
2023-04-16T18:56:14.726Z,14.00
2023-04-16T18:58:42.012Z,14.27
2023-04-16T19:01:11.316Z,14.32
2023-04-16T19:03:38.808Z,13.20
2023-04-16T19:06:06.421Z,13.10
2023-04-16T19:08:33.769Z,13.55
2023-04-16T19:11:01.163Z,12.70
2023-04-16T19:13:30.368Z,13.55
2023-04-16T19:16:01.632Z,12.93
2023-04-16T19:18:29.184Z,12.13
2023-04-16T19:21:00.673Z,12.27
2023-04-16T19:23:28.440Z,13.03
2023-04-16T19:25:58.816Z,14.02
2023-04-16T19:28:26.360Z,12.80
2023-04-16T19:30:54.205Z,13.00
2023-04-16T19:33:21.622Z,14.30
2023-04-16T19:35:48.916Z,13.23
2023-04-16T19:38:16.248Z,14.70
2023-04-16T19:40:47.105Z,12.43
2023-04-16T19:43:14.602Z,13.15
2023-04-16T19:45:52.372Z,14.57
2023-04-16T19:48:22.969Z,13.70
2023-04-16T19:50:50.375Z,14.10
2023-04-16T19:53:17.996Z,14.32
2023-04-16T19:55:45.517Z,14.45
2023-04-16T19:58:14.502Z,14.07
2023-04-16T20:00:42.117Z,15.70
2023-04-16T20:03:09.507Z,15.35
2023-04-16T20:05:36.938Z,14.85
2023-04-16T20:08:04.259Z,15.88
2023-04-16T20:10:31.837Z,19.48
2023-04-16T20:12:59.292Z,15.67
2023-04-16T20:15:26.621Z,16.30
2023-04-16T20:17:55.350Z,16.45
2023-04-16T20:20:23.593Z,16.52
2023-04-16T20:22:50.918Z,16.77
2023-04-16T20:25:21.610Z,16.03
2023-04-16T20:27:48.887Z,16.38
2023-04-16T20:30:16.309Z,17.50
2023-04-16T20:32:43.716Z,17.15
2023-04-16T20:35:11.355Z,17.60
2023-04-16T20:37:39.059Z,18.43
2023-04-16T20:40:08.338Z,17.65
2023-04-16T20:42:35.956Z,16.67
2023-04-16T20:45:03.328Z,16.73
2023-04-16T20:47:30.659Z,16.42
2023-04-16T20:49:58.218Z,16.63
2023-04-16T20:52:25.529Z,16.58
2023-04-16T20:54:52.792Z,14.82
2023-04-16T20:57:20.184Z,15.80
2023-04-16T20:59:47.493Z,15.70
2023-04-16T21:02:15.031Z,14.83
2023-04-16T21:04:42.515Z,15.02
2023-04-16T21:07:09.873Z,15.45
2023-04-16T21:09:37.150Z,16.67
2023-04-16T21:12:04.496Z,15.88
2023-04-16T21:14:31.814Z,16.83
2023-04-16T21:16:59.110Z,16.08
2023-04-16T21:19:26.399Z,16.15
2023-04-16T21:21:53.843Z,16.05
2023-04-16T21:24:21.266Z,15.60
2023-04-16T21:26:48.680Z,15.67
2023-04-16T21:29:16.083Z,15.75
2023-04-16T21:31:43.386Z,15.70
2023-04-16T21:34:10.682Z,17.02
2023-04-16T21:36:37.988Z,17.17
2023-04-16T21:39:05.315Z,15.97
2023-04-16T21:41:32.679Z,15.85
2023-04-16T21:44:00.001Z,14.93
2023-04-16T21:46:27.872Z,17.13
2023-04-16T21:48:55.232Z,16.67
2023-04-16T21:51:29.219Z,16.67
2023-04-16T21:53:57.210Z,17.70
2023-04-16T21:56:27.564Z,15.90
2023-04-16T21:58:54.830Z,16.67
2023-04-16T22:01:22.145Z,15.88
2023-04-16T22:03:52.048Z,15.97
2023-04-16T22:06:20.482Z,15.95
2023-04-16T22:08:49.778Z,15.93
2023-04-16T22:11:17.152Z,15.70
2023-04-16T22:13:46.296Z,15.85
2023-04-16T22:16:13.805Z,14.80
2023-04-16T22:18:41.260Z,16.77
2023-04-16T22:21:08.549Z,15.85
2023-04-16T22:23:35.938Z,15.25
2023-04-16T22:26:04.165Z,15.52
2023-04-16T22:28:31.614Z,14.53
2023-04-16T22:30:58.846Z,14.90
2023-04-16T22:33:26.219Z,17.00
2023-04-16T22:35:53.483Z,16.83
2023-04-16T22:38:21.505Z,15.77
2023-04-16T22:40:49.037Z,15.53
2023-04-16T22:43:17.615Z,16.08
2023-04-16T22:45:46.370Z,18.50
2023-04-16T22:48:13.833Z,19.52
2023-04-16T22:50:41.437Z,19.35
2023-04-16T22:53:08.861Z,15.53
2023-04-16T22:55:36.624Z,15.73
2023-04-16T22:58:03.917Z,14.27
2023-04-16T23:00:31.198Z,15.77
2023-04-16T23:02:58.670Z,15.18
2023-04-16T23:05:26.176Z,15.87
2023-04-16T23:07:53.437Z,16.33
2023-04-16T23:10:20.886Z,15.77
2023-04-16T23:12:48.118Z,15.00
2023-04-16T23:15:15.507Z,15.43
2023-04-16T23:17:43.339Z,16.57
2023-04-16T23:20:12.160Z,16.60
2023-04-16T23:22:39.760Z,15.90
2023-04-16T23:25:08.679Z,16.15
2023-04-16T23:27:36.418Z,17.27
2023-04-16T23:30:04.290Z,18.20
2023-04-16T23:32:31.946Z,17.15
2023-04-16T23:34:59.301Z,16.52
2023-04-16T23:37:26.529Z,16.42
2023-04-16T23:39:53.909Z,18.10
2023-04-16T23:42:21.162Z,16.67
2023-04-16T23:44:48.467Z,16.35
2023-04-16T23:47:15.903Z,16.05
2023-04-16T23:49:43.297Z,19.55
2023-04-16T23:52:10.607Z,17.83
2023-04-16T23:54:37.942Z,18.70
2023-04-16T23:57:05.220Z,16.48
2023-04-16T23:59:32.480Z,16.27
